Time;durP1;ratioP1;P1;durP2;ratioP2;P2;SDS_P1;SDS_P2;PMS_P1;PMS_P2;Temp;Humidity;BMP_temperature;BMP_pressure;BME280_temperature;BME280_humidity;BME280_pressure;Samples;Min_cycle;Max_cycle;Signal;HPM_P1;HPM_P2
2022/05/31 00:00:40;;;;;;;4.10;3.80;;;;;;;16.93;62.43;99096.10;1789700;79;21080;-68
2022/05/31 00:03:07;;;;;;;4.53;4.22;;;;;;;16.93;62.24;99098.79;1789788;79;21444;-68
2022/05/31 00:05:35;;;;;;;5.10;4.70;;;;;;;16.95;62.08;99098.04;1789750;80;20969;-68
2022/05/31 00:08:04;;;;;;;4.00;3.50;;;;;;;16.96;62.01;99097.84;1767597;79;20994;-67
2022/05/31 00:10:31;;;;;;;3.92;3.62;;;;;;;16.96;62.49;99096.50;1764050;80;20950;-67
2022/05/31 00:12:57;;;;;;;3.25;2.87;;;;;;;16.95;62.93;99097.52;1759714;80;21206;-66
2022/05/31 00:15:24;;;;;;;3.47;3.17;;;;;;;16.94;63.10;99102.62;1759586;80;20986;-68
2022/05/31 00:17:51;;;;;;;3.02;2.83;;;;;;;16.94;63.26;99107.99;1762067;80;21384;-67
2022/05/31 00:20:19;;;;;;;3.33;3.02;;;;;;;16.92;63.49;99110.05;1763259;80;21429;-68
2022/05/31 00:22:46;;;;;;;4.40;3.87;;;;;;;16.92;63.73;99106.02;1762768;80;20978;-68
2022/05/31 00:25:12;;;;;;;4.17;3.77;;;;;;;16.90;63.99;99110.80;1779950;80;21135;-68
2022/05/31 00:27:39;;;;;;;3.60;3.37;;;;;;;16.89;64.27;99114.55;1765523;80;20843;-68
2022/05/31 00:30:08;;;;;;;3.72;3.52;;;;;;;16.90;64.62;99108.63;1761774;80;20918;-67
2022/05/31 00:32:39;;;;;;;4.85;4.45;;;;;;;16.89;64.67;99113.20;1775911;80;20914;-67
2022/05/31 00:35:10;;;;;;;4.45;4.00;;;;;;;16.89;64.91;99119.09;1780105;80;21500;-68
2022/05/31 00:37:37;;;;;;;6.97;5.40;;;;;;;16.88;65.13;99117.44;1755464;80;21191;-67
2022/05/31 00:40:05;;;;;;;5.53;4.40;;;;;;;16.89;65.34;99123.95;1789756;79;20955;-67
2022/05/31 00:42:51;;;;;;;5.78;4.70;;;;;;;16.91;65.46;99113.80;1782941;80;20971;-67
2022/05/31 00:45:19;;;;;;;5.67;5.00;;;;;;;16.93;65.56;99113.56;1759828;80;20919;-68
2022/05/31 00:47:46;;;;;;;7.67;5.20;;;;;;;16.93;65.65;99122.45;1760675;80;20934;-69
2022/05/31 00:50:45;;;;;;;6.47;5.20;;;;;;;16.94;65.71;99129.48;1785713;80;21780;-68
2022/05/31 00:53:18;;;;;;;9.20;5.22;;;;;;;16.94;65.70;99126.80;1759692;80;20962;-69
2022/05/31 00:55:52;;;;;;;14.30;6.67;;;;;;;16.92;65.87;99127.52;1759074;80;20934;-67
2022/05/31 00:58:38;;;;;;;13.40;6.17;;;;;;;16.92;66.07;99134.23;1759524;80;21441;-67
2022/05/31 01:01:08;;;;;;;11.68;6.33;;;;;;;16.92;66.18;99131.55;1768904;80;20880;-67
2022/05/31 01:03:38;;;;;;;9.93;6.90;;;;;;;16.93;66.40;99139.92;1765455;80;21453;-68
2022/05/31 01:06:04;;;;;;;14.10;7.67;;;;;;;16.93;66.57;99145.30;1759638;80;21480;-68
2022/05/31 01:08:32;;;;;;;11.70;7.10;;;;;;;16.94;66.71;99155.53;1759715;80;21042;-69
2022/05/31 01:11:01;;;;;;;9.63;6.42;;;;;;;16.94;66.79;99156.88;1768062;79;20915;-68
2022/05/31 01:13:47;;;;;;;8.98;5.22;;;;;;;16.94;66.95;99156.88;1781169;80;21461;-67
2022/05/31 01:16:32;;;;;;;9.63;6.25;;;;;;;16.95;67.35;99153.13;1789422;79;21363;-67
2022/05/31 01:19:55;;;;;;;8.63;6.55;;;;;;;16.97;67.37;99146.48;1788893;79;20989;-68
2022/05/31 01:21:50;;;;;;;11.05;6.05;;;;;;;16.97;67.40;99151.86;1776412;80;20919;-68
2022/05/31 01:24:18;;;;;;;10.45;6.40;;;;;;;16.98;67.20;99153.52;1767255;80;20919;-67
2022/05/31 01:26:57;;;;;;;8.25;5.62;;;;;;;16.98;67.18;99159.41;1759769;80;21500;-67
2022/05/31 01:29:36;;;;;;;7.28;5.35;;;;;;;16.99;67.36;99157.03;1777752;80;21230;-67
2022/05/31 01:32:07;;;;;;;7.78;5.00;;;;;;;17.00;67.58;99157.31;1759691;80;21488;-68
2022/05/31 01:34:54;;;;;;;12.90;6.00;;;;;;;16.99;67.86;99158.38;1759806;80;21040;-68
2022/05/31 01:37:37;;;;;;;8.08;5.17;;;;;;;16.98;67.98;99169.64;1755058;80;20887;-67
2022/05/31 01:40:09;;;;;;;6.28;5.45;;;;;;;17.00;68.04;99170.23;1760873;81;20954;-68
2022/05/31 01:42:40;;;;;;;7.65;6.03;;;;;;;17.00;68.13;99176.95;1743925;81;21120;-68
2022/05/31 01:45:22;;;;;;;7.28;5.58;;;;;;;16.99;68.28;99177.19;1766644;81;20940;-68
2022/05/31 01:47:49;;;;;;;5.30;4.80;;;;;;;16.98;68.21;99184.94;1773361;79;20928;-67
2022/05/31 01:50:18;;;;;;;5.20;4.67;;;;;;;16.94;68.33;99177.85;1768869;79;20880;-68
2022/05/31 01:52:45;;;;;;;5.50;5.10;;;;;;;16.93;68.52;99173.50;1748913;79;20994;-68
2022/05/31 01:55:12;;;;;;;5.28;4.62;;;;;;;16.96;68.62;99180.30;1743687;81;21139;-68
2022/05/31 01:57:39;;;;;;;4.92;4.58;;;;;;;16.93;68.69;99178.87;1743549;81;21378;-68
2022/05/31 02:00:10;;;;;;;5.55;4.78;;;;;;;16.92;68.78;99171.84;1749807;81;21425;-68
2022/05/31 02:02:47;;;;;;;5.55;5.00;;;;;;;16.91;68.85;99162.67;1752146;79;20978;-68
2022/05/31 02:05:14;;;;;;;7.53;5.30;;;;;;;16.87;68.91;99163.63;1745253;79;20951;-68
2022/05/31 02:07:41;;;;;;;5.50;4.87;;;;;;;16.83;69.04;99158.91;1771328;81;22142;-67
2022/05/31 02:10:08;;;;;;;6.47;4.67;;;;;;;16.78;69.33;99160.91;1771209;81;20836;-67
2022/05/31 02:12:38;;;;;;;5.75;5.28;;;;;;;16.75;69.60;99164.55;1749854;80;20911;-68
2022/05/31 02:15:11;;;;;;;8.28;5.67;;;;;;;16.72;69.82;99171.17;1732449;81;20891;-68
2022/05/31 02:17:39;;;;;;;6.35;5.30;;;;;;;16.72;69.99;99169.00;1744487;81;21944;-67
2022/05/31 02:20:25;;;;;;;6.45;5.92;;;;;;;16.70;70.21;99177.29;1753635;81;21254;-68
2022/05/31 02:22:51;;;;;;;6.87;6.28;;;;;;;16.71;70.35;99168.72;1743740;81;21014;-68
2022/05/31 02:25:19;;;;;;;7.35;5.87;;;;;;;16.71;70.46;99178.95;1743727;81;21392;-68
2022/05/31 02:27:46;;;;;;;7.33;6.62;;;;;;;16.70;70.58;99181.83;1744191;81;21450;-68
2022/05/31 02:30:13;;;;;;;10.43;7.72;;;;;;;16.68;70.67;99178.55;1750842;81;20950;-68
2022/05/31 02:32:40;;;;;;;8.28;7.58;;;;;;;16.68;70.39;99183.41;1743784;81;22044;-68
2022/05/31 02:35:13;;;;;;;8.43;7.70;;;;;;;16.68;70.07;99176.14;1743758;81;20911;-68
2022/05/31 02:37:38;;;;;;;8.73;7.95;;;;;;;16.70;69.86;99182.66;1747721;80;20930;-68
2022/05/31 02:40:06;;;;;;;8.63;7.92;;;;;;;16.72;69.75;99187.29;1773565;80;21025;-68
2022/05/31 02:42:36;;;;;;;10.00;8.98;;;;;;;16.71;69.75;99209.84;1782242;80;20987;-69
2022/05/31 02:45:05;;;;;;;9.30;8.40;;;;;;;16.71;69.72;99208.49;1789962;79;21054;-68
2022/05/31 02:47:32;;;;;;;8.08;6.85;;;;;;;16.71;69.76;99207.15;1789707;80;20911;-68
2022/05/31 02:49:59;;;;;;;8.35;6.85;;;;;;;16.72;69.73;99210.63;1765503;80;20918;-67
2022/05/31 02:52:26;;;;;;;7.55;6.95;;;;;;;16.71;69.47;99216.55;1759721;80;20978;-68
2022/05/31 02:54:52;;;;;;;8.35;7.60;;;;;;;16.71;68.97;99225.95;1759846;80;21084;-68
2022/05/31 02:57:19;;;;;;;7.95;7.15;;;;;;;16.70;69.05;99233.69;1759825;80;21250;-67
2022/05/31 03:00:06;;;;;;;8.28;7.42;;;;;;;16.71;68.96;99230.49;1768360;80;20935;-68
2022/05/31 03:02:52;;;;;;;8.20;7.15;;;;;;;16.71;68.89;99237.20;1719641;82;20966;-68
2022/05/31 03:05:21;;;;;;;8.35;7.20;;;;;;;16.66;68.64;99242.69;1709907;82;20944;-68
2022/05/31 03:07:55;;;;;;;9.13;8.10;;;;;;;16.64;68.80;99237.23;1732070;80;21021;-68
2022/05/31 03:10:23;;;;;;;8.38;7.67;;;;;;;16.64;68.75;99245.28;1759695;80;21162;-68
2022/05/31 03:12:50;;;;;;;8.35;7.65;;;;;;;16.64;68.25;99239.91;1766757;80;20879;-68
2022/05/31 03:15:18;;;;;;;6.92;6.33;;;;;;;16.64;67.78;99244.77;1759835;80;21413;-68
2022/05/31 03:17:55;;;;;;;5.83;5.33;;;;;;;16.65;67.04;99248.28;1759619;80;21108;-68
2022/05/31 03:20:26;;;;;;;6.62;6.03;;;;;;;16.64;66.30;99251.48;1770388;80;21499;-68
2022/05/31 03:22:59;;;;;;;6.25;5.65;;;;;;;16.62;65.92;99248.70;1761261;80;21149;-68
2022/05/31 03:25:27;;;;;;;4.90;4.60;;;;;;;16.59;66.13;99258.53;1765429;80;20996;-67
2022/05/31 03:27:58;;;;;;;6.42;5.92;;;;;;;16.57;66.12;99268.67;1760567;80;21010;-68
2022/05/31 03:30:25;;;;;;;5.35;4.83;;;;;;;16.58;66.24;99280.53;1764023;80;20950;-67
2022/05/31 03:32:54;;;;;;;5.17;4.47;;;;;;;16.58;66.56;99283.22;1759748;80;20930;-68
2022/05/31 03:35:21;;;;;;;5.30;4.80;;;;;;;16.60;66.59;99285.70;1760803;80;21847;-68
2022/05/31 03:37:48;;;;;;;5.55;5.15;;;;;;;16.61;66.70;99294.05;1768424;80;20975;-68
2022/05/31 03:43:02;;;;;;;12.68;11.60;;;;;;;16.58;67.15;99285.10;1760866;79;21504;-68
2022/05/31 03:45:39;;;;;;;16.87;14.73;;;;;;;16.57;67.17;99290.98;1759801;80;20879;-68
2022/05/31 03:48:20;;;;;;;15.40;14.10;;;;;;;16.55;66.86;99286.35;1754325;80;21233;-68
2022/05/31 03:51:05;;;;;;;11.25;10.35;;;;;;;16.57;66.81;99298.20;1757575;80;21523;-67
2022/05/31 03:53:31;;;;;;;10.08;9.00;;;;;;;16.56;67.00;99297.38;1759919;80;21099;-68
2022/05/31 03:56:03;;;;;;;10.65;9.68;;;;;;;16.52;66.77;99298.00;1759804;80;20930;-68
2022/05/31 03:58:31;;;;;;;9.35;8.53;;;;;;;16.51;66.83;99294.99;1763706;80;20946;-68
2022/05/31 04:01:06;;;;;;;6.90;6.40;;;;;;;16.50;67.14;99296.84;1765537;79;21269;-67
2022/05/31 04:03:33;;;;;;;5.30;4.70;;;;;;;16.49;66.98;99298.41;1760820;80;21484;-68
2022/05/31 04:05:59;;;;;;;4.10;3.72;;;;;;;16.47;66.84;99303.18;1759711;80;20911;-68
2022/05/31 04:08:28;;;;;;;3.65;3.35;;;;;;;16.43;66.80;99308.65;1761667;80;20942;-67
2022/05/31 04:10:55;;;;;;;3.20;2.90;;;;;;;16.41;67.28;99308.05;1762053;80;21036;-67
2022/05/31 04:13:25;;;;;;;3.52;2.90;;;;;;;16.40;67.42;99320.64;1759721;80;21142;-68
2022/05/31 04:16:13;;;;;;;3.30;2.75;;;;;;;16.38;67.33;99320.54;1779967;80;20871;-68
2022/05/31 04:18:41;;;;;;;2.77;2.58;;;;;;;16.37;67.30;99329.66;1778016;80;21421;-67
2022/05/31 04:21:11;;;;;;;3.70;3.35;;;;;;;16.34;67.75;99326.87;1759584;80;21016;-67
2022/05/31 04:26:45;;;;;;;3.10;2.85;;;;;;;16.36;68.51;99326.65;1779838;80;21137;-66
2022/05/31 04:29:31;;;;;;;3.90;2.60;;;;;;;16.34;68.34;99333.58;1776404;80;21013;-67
2022/05/31 04:32:17;;;;;;;2.40;2.30;;;;;;;16.33;68.66;99337.28;1769409;80;20958;-68
2022/05/31 04:34:46;;;;;;;3.15;2.70;;;;;;;16.34;68.70;99336.78;1759337;80;20934;-68
2022/05/31 04:37:14;;;;;;;3.05;2.83;;;;;;;16.34;68.93;99334.09;1759700;80;20926;-67
2022/05/31 04:39:55;;;;;;;3.47;3.17;;;;;;;16.35;69.24;99345.12;1761766;80;21953;-67
2022/05/31 04:42:42;;;;;;;3.67;3.37;;;;;;;16.31;69.40;99342.56;1747861;81;20975;-67
2022/05/31 04:45:10;;;;;;;2.92;2.72;;;;;;;16.28;69.50;99348.34;1743925;81;20880;-67
2022/05/31 04:47:39;;;;;;;9.23;8.35;;;;;;;16.26;69.38;99347.73;1748176;81;20903;-67
2022/05/31 04:50:07;;;;;;;8.68;7.95;;;;;;;16.25;69.54;99347.42;1748300;81;20896;-66
2022/05/31 04:52:37;;;;;;;8.55;7.85;;;;;;;16.27;69.79;99348.86;1743708;81;21734;-67
2022/05/31 04:55:05;;;;;;;5.65;5.05;;;;;;;16.28;70.14;99351.03;1743637;81;20928;-68
2022/05/31 04:57:35;;;;;;;3.90;3.60;;;;;;;16.30;70.09;99357.00;1745876;80;21485;-67
2022/05/31 05:00:06;;;;;;;4.80;3.37;;;;;;;16.27;69.87;99359.59;1775044;79;21026;-67
2022/05/31 05:02:33;;;;;;;4.05;3.65;;;;;;;16.24;69.80;99372.08;1747138;81;21501;-67
2022/05/31 05:05:02;;;;;;;3.58;3.33;;;;;;;16.22;69.91;99374.16;1748759;81;21805;-66
2022/05/31 05:07:30;;;;;;;3.55;3.25;;;;;;;16.20;69.94;99366.01;1744478;81;20922;-68
2022/05/31 05:09:57;;;;;;;3.72;3.42;;;;;;;16.16;69.83;99376.36;1766685;79;20968;-68
2022/05/31 05:12:27;;;;;;;3.33;3.12;;;;;;;16.13;70.20;99378.11;1759483;79;21474;-68
2022/05/31 05:14:59;;;;;;;3.83;3.15;;;;;;;16.11;70.39;99378.84;1752028;80;20980;-67
2022/05/31 05:17:26;;;;;;;3.02;2.83;;;;;;;16.12;70.48;99386.34;1761077;79;21132;-69
2022/05/31 05:19:53;;;;;;;3.02;2.83;;;;;;;16.11;70.17;99384.72;1757249;79;20888;-71
2022/05/31 05:22:19;;;;;;;3.25;2.92;;;;;;;16.08;69.92;99386.47;1743517;81;20923;-69
2022/05/31 05:24:46;;;;;;;2.92;2.72;;;;;;;16.00;69.47;99388.34;1748238;81;21453;-70
2022/05/31 05:27:31;;;;;;;3.20;3.00;;;;;;;15.94;69.60;99390.50;1764147;81;21428;-68
2022/05/31 05:32:55;;;;;;;3.25;2.95;;;;;;;15.84;69.69;99390.60;1749963;81;20970;-68
2022/05/31 05:35:24;;;;;;;2.70;2.50;;;;;;;15.76;70.00;99392.97;1745624;81;20982;-69
2022/05/31 05:37:52;;;;;;;5.30;2.98;;;;;;;15.68;70.18;99393.17;1744236;81;21006;-70
2022/05/31 05:40:21;;;;;;;3.30;2.98;;;;;;;15.65;70.40;99396.77;1770859;80;21100;-70
2022/05/31 05:43:08;;;;;;;4.40;3.05;;;;;;;15.65;70.63;99399.45;1765688;80;21871;-69
2022/05/31 05:45:38;;;;;;;3.50;2.92;;;;;;;15.66;70.94;99395.23;1763406;80;20883;-70
2022/05/31 05:48:07;;;;;;;4.15;2.83;;;;;;;15.70;71.40;99388.92;1757189;79;21010;-70
2022/05/31 05:50:35;;;;;;;5.47;2.83;;;;;;;15.73;71.40;99389.86;1753538;80;21014;-70
2022/05/31 05:53:10;;;;;;;5.90;3.12;;;;;;;15.73;71.61;99388.52;1756318;80;20939;-71
2022/05/31 05:55:42;;;;;;;6.55;3.25;;;;;;;15.74;71.52;99396.89;1775569;80;21178;-72
2022/05/31 05:58:28;;;;;;;5.95;3.22;;;;;;;15.77;71.49;99389.78;1768902;80;21477;-72
2022/05/31 06:01:39;;;;;;;6.12;2.75;;;;;;;15.81;71.91;99390.50;1771712;80;21083;-71
2022/05/31 06:04:28;;;;;;;3.20;2.90;;;;;;;15.87;72.15;99395.05;1758287;79;21414;-69
2022/05/31 06:07:00;;;;;;;5.50;2.65;;;;;;;16.06;72.30;99397.39;1766012;80;21602;-72
2022/05/31 06:09:27;;;;;;;7.95;6.37;;;;;;;16.30;71.90;99394.08;1761815;80;21131;-69
2022/05/31 06:12:08;;;;;;;4.58;3.98;;;;;;;16.52;70.96;99396.00;1771791;79;20915;-69
2022/05/31 06:14:49;;;;;;;3.67;2.90;;;;;;;16.68;70.00;99392.06;1758651;79;20982;-70
2022/05/31 06:17:21;;;;;;;3.52;2.60;;;;;;;16.81;69.22;99394.71;1774967;80;21489;-70
2022/05/31 06:19:49;;;;;;;2.40;1.95;;;;;;;16.92;69.11;99394.05;1762553;79;21049;-70
2022/05/31 06:22:15;;;;;;;2.90;2.27;;;;;;;17.00;68.68;99394.62;1768214;79;21643;-66
2022/05/31 06:24:43;;;;;;;5.42;2.30;;;;;;;17.04;67.72;99392.34;1764825;78;20915;-68
2022/05/31 06:27:15;;;;;;;2.77;2.12;;;;;;;17.07;67.16;99394.09;1760819;80;20911;-67
2022/05/31 06:29:42;;;;;;;2.08;1.98;;;;;;;17.13;67.37;99397.25;1762057;80;21409;-67
2022/05/31 06:32:09;;;;;;;2.52;1.95;;;;;;;17.17;66.38;99397.14;1768723;80;20894;-68
2022/05/31 06:34:40;;;;;;;3.00;1.92;;;;;;;17.21;65.80;99392.97;1756142;80;21212;-66
2022/05/31 06:37:11;;;;;;;1.85;1.75;;;;;;;17.24;65.86;99395.23;1765951;80;20831;-67
2022/05/31 06:39:39;;;;;;;3.65;1.90;;;;;;;17.31;66.25;99395.22;1778810;80;20971;-67
2022/05/31 06:42:10;;;;;;;2.35;2.12;;;;;;;17.41;66.22;99396.08;1758359;80;20884;-67
2022/05/31 06:44:42;;;;;;;1.92;1.80;;;;;;;17.47;65.69;99393.88;1702290;82;20914;-68
2022/05/31 06:47:19;;;;;;;2.77;2.00;;;;;;;17.58;65.35;99391.85;1643676;85;21073;-66
2022/05/31 06:49:53;;;;;;;3.77;2.67;;;;;;;17.78;64.87;99396.59;1709486;82;22030;-74
2022/05/31 06:58:27;;;;;;;2.70;2.10;;;;;;;18.27;63.13;99401.14;1716871;82;20930;-72
2022/05/31 07:00:56;;;;;;;2.62;1.80;;;;;;;18.39;63.24;99407.44;1720478;82;21132;-70
2022/05/31 07:03:23;;;;;;;1.70;1.60;;;;;;;18.71;62.59;99402.79;1753992;80;21526;-70
2022/05/31 07:05:58;;;;;;;2.08;1.90;;;;;;;19.31;61.18;99406.40;1754066;80;20883;-70
2022/05/31 07:08:25;;;;;;;1.90;1.70;;;;;;;19.92;59.65;99403.47;1774200;80;20923;-70
2022/05/31 07:10:59;;;;;;;1.67;1.57;;;;;;;20.37;58.24;99404.58;1754247;80;21030;-71
2022/05/31 07:13:28;;;;;;;2.27;1.25;;;;;;;20.66;55.88;99404.14;1754155;80;21127;-71
2022/05/31 07:16:13;;;;;;;1.85;1.75;;;;;;;20.92;54.65;99401.75;1754200;80;20981;-70
2022/05/31 07:18:58;;;;;;;1.77;1.67;;;;;;;21.48;54.63;99403.69;1753987;80;20974;-71
2022/05/31 07:21:26;;;;;;;2.00;1.47;;;;;;;22.15;52.69;99409.23;1754096;80;21065;-69
2022/05/31 07:23:53;;;;;;;2.52;1.87;;;;;;;22.79;51.30;99409.11;1754229;80;20997;-70
2022/05/31 07:26:21;;;;;;;2.37;2.00;;;;;;;23.42;48.92;99405.84;1754113;80;21305;-70
2022/05/31 07:28:49;;;;;;;3.47;2.45;;;;;;;24.03;48.12;99407.27;1754054;80;20935;-70
2022/05/31 07:31:16;;;;;;;2.20;2.00;;;;;;;24.85;46.71;99407.59;1754155;80;21501;-71
2022/05/31 07:33:48;;;;;;;1.87;1.60;;;;;;;25.71;44.67;99405.18;1754423;80;21469;-71
2022/05/31 07:36:15;;;;;;;2.17;1.60;;;;;;;26.45;42.37;99406.86;1754140;80;20931;-70
2022/05/31 07:39:00;;;;;;;3.10;1.50;;;;;;;26.93;40.64;99408.94;1736473;80;21113;-70
2022/05/31 07:41:28;;;;;;;1.72;1.62;;;;;;;27.38;39.49;99405.20;1759735;80;21008;-70
2022/05/31 07:43:55;;;;;;;1.98;1.87;;;;;;;27.64;38.90;99407.83;1740533;80;20938;-70
2022/05/31 07:46:22;;;;;;;1.80;1.67;;;;;;;27.73;37.73;99411.58;1759719;80;20859;-69
2022/05/31 07:48:48;;;;;;;1.62;1.50;;;;;;;27.64;37.41;99408.63;1759928;80;21408;-69
2022/05/31 07:51:17;;;;;;;1.45;1.32;;;;;;;27.52;37.73;99414.45;1760021;80;21949;-69
2022/05/31 07:53:52;;;;;;;1.90;1.80;;;;;;;27.39;37.75;99410.11;1759448;80;20926;-71
2022/05/31 07:56:39;;;;;;;2.67;1.50;;;;;;;27.27;38.20;99409.06;1695539;83;20909;-70
2022/05/31 07:59:20;;;;;;;1.87;1.57;;;;;;;27.34;38.69;99411.51;1710334;82;20870;-69
2022/05/31 08:01:52;;;;;;;1.72;1.62;;;;;;;27.51;38.37;99409.25;1752871;80;21519;-71
2022/05/31 08:04:20;;;;;;;1.87;1.65;;;;;;;27.67;37.82;99405.33;1759238;80;21081;-71
2022/05/31 08:06:46;;;;;;;2.00;1.80;;;;;;;27.78;37.79;99409.63;1759629;80;21504;-70
2022/05/31 08:09:14;;;;;;;1.87;1.57;;;;;;;27.82;36.69;99405.80;1759659;80;20954;-71
2022/05/31 08:11:40;;;;;;;2.33;1.62;;;;;;;27.67;36.76;99408.60;1759660;80;21413;-70
2022/05/31 08:14:08;;;;;;;2.65;1.50;;;;;;;27.39;36.89;99416.94;1759609;80;20840;-70
2022/05/31 08:16:35;;;;;;;1.60;1.50;;;;;;;27.05;37.30;99411.91;1759655;80;21812;-70
2022/05/31 08:19:02;;;;;;;4.75;1.70;;;;;;;26.74;37.92;99411.16;1790072;80;20924;-70
2022/05/31 08:21:30;;;;;;;2.15;1.98;;;;;;;26.49;38.26;99405.20;1789550;80;20931;-70
2022/05/31 08:24:01;;;;;;;2.60;2.40;;;;;;;26.32;38.64;99407.42;1769899;80;21543;-70
2022/05/31 08:26:27;;;;;;;3.33;1.90;;;;;;;26.17;39.10;99405.53;1759235;80;21020;-70
2022/05/31 08:28:54;;;;;;;1.87;1.77;;;;;;;26.05;39.32;99409.56;1759509;80;21194;-70
2022/05/31 08:31:31;;;;;;;2.40;1.80;;;;;;;25.92;38.90;99406.02;1789718;80;20836;-71
2022/05/31 08:33:58;;;;;;;2.10;1.90;;;;;;;25.85;39.42;99394.58;1789655;80;21017;-70
2022/05/31 08:36:25;;;;;;;2.37;2.12;;;;;;;25.82;39.92;99394.58;1789544;80;20926;-71
2022/05/31 08:38:51;;;;;;;4.58;1.90;;;;;;;25.74;39.44;99391.02;1789172;79;20978;-71
2022/05/31 08:41:27;;;;;;;2.17;1.70;;;;;;;25.59;39.60;99398.64;1789656;80;21098;-69
2022/05/31 08:44:08;;;;;;;2.27;2.08;;;;;;;25.47;39.61;99404.86;1789543;79;21504;-70
2022/05/31 08:47:13;;;;;;;2.20;2.00;;;;;;;25.46;39.89;99400.52;1789848;80;20887;-71
2022/05/31 08:52:58;;;;;;;2.52;2.42;;;;;;;25.41;41.04;99400.47;1759897;80;21444;-71
2022/05/31 08:58:34;;;;;;;2.83;1.90;;;;;;;25.33;40.68;99400.99;1789670;80;20993;-69
2022/05/31 09:01:01;;;;;;;2.40;1.90;;;;;;;25.31;40.87;99403.70;1789221;79;20919;-71
2022/05/31 09:03:49;;;;;;;2.37;2.08;;;;;;;25.35;40.73;99408.34;1720589;80;21033;-71
2022/05/31 09:06:32;;;;;;;3.67;2.25;;;;;;;25.40;41.06;99403.45;1759742;80;21468;-71
2022/05/31 09:09:07;;;;;;;2.75;2.30;;;;;;;25.49;40.52;99412.78;1759714;80;21267;-70
2022/05/31 09:11:44;;;;;;;2.30;2.20;;;;;;;25.47;39.77;99413.03;1759469;79;20955;-70
2022/05/31 09:14:33;;;;;;;2.20;2.00;;;;;;;25.23;39.76;99406.41;1780669;80;20915;-71
2022/05/31 09:17:22;;;;;;;2.72;2.17;;;;;;;25.00;40.30;99411.73;1789695;80;21062;-71
2022/05/31 09:20:06;;;;;;;5.10;2.20;;;;;;;24.81;40.26;99409.75;1759705;80;20926;-69
2022/05/31 09:22:33;;;;;;;3.87;2.52;;;;;;;24.65;40.83;99414.80;1783013;80;21246;-69
2022/05/31 09:25:00;;;;;;;2.67;2.47;;;;;;;24.52;41.63;99415.55;1770240;80;21540;-70
2022/05/31 09:27:42;;;;;;;2.12;2.02;;;;;;;24.32;42.19;99414.59;1789593;79;20929;-70
2022/05/31 09:30:31;;;;;;;3.50;2.60;;;;;;;24.24;42.28;99410.99;1789711;80;20899;-70
2022/05/31 09:33:28;;;;;;;2.50;2.30;;;;;;;24.18;42.23;99410.12;1789852;80;21024;-70
2022/05/31 09:36:12;;;;;;;3.97;2.27;;;;;;;24.05;42.69;99409.17;1789796;80;21690;-71
2022/05/31 09:38:59;;;;;;;2.50;2.30;;;;;;;23.96;42.34;99406.11;1789100;80;21127;-70
2022/05/31 09:41:40;;;;;;;5.95;2.27;;;;;;;23.89;41.83;99415.02;1789420;79;21026;-70
2022/05/31 09:44:24;;;;;;;2.60;2.40;;;;;;;23.76;42.04;99417.33;1789587;80;20883;-71
2022/05/31 09:47:07;;;;;;;2.53;2.43;;;;;;;23.71;42.68;99419.46;1789829;79;20998;-70
2022/05/31 09:49:40;;;;;;;3.20;2.22;;;;;;;23.74;43.12;99420.84;1789743;80;21253;-70
2022/05/31 09:52:33;;;;;;;2.72;2.30;;;;;;;23.83;43.04;99420.64;1789621;80;21461;-70
2022/05/31 09:58:31;;;;;;;2.33;2.12;;;;;;;24.05;41.83;99418.69;1788544;80;20923;-71
2022/05/31 10:01:26;;;;;;;2.17;2.05;;;;;;;24.12;41.34;99426.10;1789740;79;20943;-71
2022/05/31 10:04:09;;;;;;;4.15;2.10;;;;;;;24.17;41.66;99420.70;1774554;79;21251;-71
2022/05/31 10:06:51;;;;;;;1.95;1.75;;;;;;;24.20;41.81;99421.55;1789750;80;20967;-71
2022/05/31 10:09:18;;;;;;;2.67;2.27;;;;;;;24.22;41.39;99426.75;1789639;79;20839;-71
2022/05/31 10:11:45;;;;;;;3.77;2.35;;;;;;;24.21;41.44;99421.84;1789649;79;20919;-71
2022/05/31 10:14:25;;;;;;;2.60;2.40;;;;;;;24.13;41.21;99428.29;1789571;79;21405;-71
2022/05/31 10:16:54;;;;;;;2.58;1.60;;;;;;;24.03;41.51;99433.08;1789560;79;21501;-71
2022/05/31 10:19:23;;;;;;;2.22;2.00;;;;;;;23.95;41.77;99433.55;1789432;80;20969;-71
2022/05/31 10:21:50;;;;;;;1.77;1.67;;;;;;;23.88;41.53;99431.59;1789480;80;20958;-71
2022/05/31 10:24:27;;;;;;;2.35;1.98;;;;;;;23.83;41.69;99428.26;1787984;79;20962;-70
2022/05/31 10:27:20;;;;;;;3.70;2.27;;;;;;;23.76;41.25;99429.02;1789741;80;21588;-71
2022/05/31 10:30:05;;;;;;;1.98;1.70;;;;;;;23.68;41.87;99431.36;1748941;80;21734;-70
2022/05/31 10:33:05;;;;;;;2.47;1.80;;;;;;;23.67;41.94;99436.53;1743963;80;20887;-71
2022/05/31 10:35:35;;;;;;;2.05;1.87;;;;;;;23.68;41.59;99432.72;1781270;80;21497;-71
2022/05/31 10:38:10;;;;;;;2.30;1.82;;;;;;;23.71;41.67;99435.76;1789732;79;20915;-70
2022/05/31 10:40:52;;;;;;;1.90;1.80;;;;;;;23.76;42.20;99441.77;1788006;79;20860;-71
2022/05/31 10:43:52;;;;;;;5.60;1.92;;;;;;;23.77;42.32;99442.89;1789665;79;20911;-71
2022/05/31 10:46:36;;;;;;;2.67;1.85;;;;;;;23.81;42.02;99439.10;1789828;80;20906;-70
2022/05/31 10:49:19;;;;;;;5.90;5.30;;;;;;;23.88;41.69;99434.30;1789724;80;20935;-70
2022/05/31 10:52:36;;;;;;;4.65;2.42;;;;;;;23.97;41.53;99439.53;1789568;79;20974;-71
2022/05/31 10:55:40;;;;;;;2.10;1.80;;;;;;;24.08;41.07;99436.37;1789984;80;21493;-70
2022/05/31 10:58:39;;;;;;;2.90;2.65;;;;;;;24.21;40.59;99441.41;1786959;80;21280;-71
2022/05/31 11:01:26;;;;;;;2.85;1.70;;;;;;;24.33;40.80;99448.30;1789750;80;20867;-70
2022/05/31 11:04:18;;;;;;;1.37;1.25;;;;;;;24.39;39.20;99440.47;1789614;79;20963;-71
2022/05/31 11:06:57;;;;;;;1.65;1.55;;;;;;;24.32;39.40;99441.23;1781653;80;21480;-70
2022/05/31 11:12:32;;;;;;;1.67;1.57;;;;;;;24.31;40.08;99446.92;1759860;80;21295;-69
2022/05/31 11:15:26;;;;;;;1.80;1.70;;;;;;;24.25;40.02;99446.05;1759829;80;21750;-69
2022/05/31 11:18:19;;;;;;;1.95;1.75;;;;;;;24.23;40.13;99440.06;1759837;80;21519;-70
2022/05/31 11:21:22;;;;;;;2.33;1.50;;;;;;;24.17;40.87;99434.86;1782335;80;20966;-70
2022/05/31 11:23:59;;;;;;;1.92;1.60;;;;;;;24.16;41.31;99438.64;1789264;79;20867;-70
2022/05/31 11:26:57;;;;;;;1.65;1.55;;;;;;;24.17;40.29;99441.09;1789673;79;21312;-71
2022/05/31 11:29:56;;;;;;;3.90;2.00;;;;;;;24.13;40.69;99431.00;1789795;80;20915;-71
2022/05/31 11:32:37;;;;;;;3.77;2.10;;;;;;;24.09;41.21;99440.20;1789582;79;20993;-71
2022/05/31 11:35:38;;;;;;;1.90;1.67;;;;;;;24.02;41.67;99438.22;1789778;80;20927;-71
2022/05/31 11:38:28;;;;;;;1.55;1.40;;;;;;;23.91;41.15;99430.52;1789911;80;20962;-71
2022/05/31 11:41:24;;;;;;;1.70;1.60;;;;;;;23.82;41.71;99433.97;1788358;79;21137;-70
2022/05/31 11:44:35;;;;;;;5.00;1.72;;;;;;;23.78;41.39;99434.17;1787232;79;26920;-69
2022/05/31 11:47:33;;;;;;;4.22;1.57;;;;;;;23.67;40.71;99433.82;1779543;80;21028;-70
2022/05/31 11:50:05;;;;;;;1.80;1.37;;;;;;;23.57;40.58;99430.44;1787238;80;20985;-71
2022/05/31 11:53:00;;;;;;;1.70;1.60;;;;;;;23.49;40.20;99428.17;1787166;79;20919;-71
2022/05/31 11:55:54;;;;;;;2.58;1.65;;;;;;;23.46;40.87;99433.31;1787125;80;21154;-69
2022/05/31 11:58:33;;;;;;;2.20;1.70;;;;;;;23.39;41.46;99429.42;1757186;80;20876;-71
2022/05/31 12:01:20;;;;;;;2.87;1.95;;;;;;;23.34;41.67;99427.45;1779795;80;21022;-71
2022/05/31 12:04:19;;;;;;;2.87;1.87;;;;;;;23.33;42.00;99424.44;1787280;79;20923;-71
2022/05/31 12:07:02;;;;;;;1.95;1.22;;;;;;;23.35;42.11;99428.27;1787189;79;21543;-72
2022/05/31 12:09:36;;;;;;;2.27;1.60;;;;;;;23.33;42.12;99425.80;1786805;80;23081;-72
2022/05/31 12:12:17;;;;;;;1.82;1.40;;;;;;;23.24;41.98;99427.86;1787324;80;20954;-72
2022/05/31 12:14:51;;;;;;;1.50;1.40;;;;;;;23.13;41.93;99427.45;1787274;80;20938;-71
2022/05/31 12:17:21;;;;;;;1.42;1.32;;;;;;;23.05;42.00;99429.25;1778078;80;21438;-71
2022/05/31 12:20:19;;;;;;;1.30;1.20;;;;;;;23.01;42.08;99422.17;1787215;80;20874;-71
2022/05/31 12:23:05;;;;;;;2.15;1.37;;;;;;;23.01;41.98;99430.31;1787135;80;21248;-69
2022/05/31 12:25:36;;;;;;;1.72;1.62;;;;;;;22.99;41.76;99422.96;1787254;79;20919;-70
2022/05/31 12:28:16;;;;;;;1.52;1.42;;;;;;;22.92;41.15;99417.41;1787138;80;21063;-71
2022/05/31 12:31:26;;;;;;;1.60;1.30;;;;;;;22.91;41.53;99411.19;1784596;80;21009;-69
2022/05/31 12:33:52;;;;;;;3.25;1.32;;;;;;;22.92;41.80;99416.05;1787174;80;20907;-70
2022/05/31 12:36:23;;;;;;;3.77;1.20;;;;;;;22.87;41.76;99420.89;1787168;79;21137;-70